createdAt,value
2018-09-24T00:02:11.205Z,7.50
2018-09-24T00:04:39.545Z,7.50
2018-09-24T00:07:08.148Z,7.50
2018-09-24T00:09:36.489Z,7.50
2018-09-24T00:12:04.855Z,7.50
2018-09-24T00:14:33.232Z,7.50
2018-09-24T00:17:01.600Z,7.50
2018-09-24T00:19:29.931Z,7.50
2018-09-24T00:21:58.329Z,7.50
2018-09-24T00:24:26.652Z,7.50
2018-09-24T00:26:54.990Z,7.40
2018-09-24T00:29:23.989Z,7.40
2018-09-24T00:31:52.352Z,7.30
2018-09-24T00:34:20.724Z,7.30
2018-09-24T00:36:49.152Z,7.30
2018-09-24T00:39:17.568Z,7.20
2018-09-24T00:41:45.904Z,7.20
2018-09-24T00:44:14.329Z,7.20
2018-09-24T00:46:42.693Z,7.20
2018-09-24T00:49:11.035Z,7.20
2018-09-24T00:51:39.425Z,7.10
2018-09-24T00:54:07.767Z,7.20
2018-09-24T00:56:36.124Z,7.20
2018-09-24T00:59:04.588Z,7.10
2018-09-24T01:01:33.028Z,7.20
2018-09-24T01:04:01.387Z,7.20
2018-09-24T01:06:30.200Z,7.20
2018-09-24T01:08:58.552Z,7.20
2018-09-24T01:11:26.883Z,7.30
2018-09-24T01:13:55.318Z,7.30
2018-09-24T01:16:23.701Z,7.30
2018-09-24T01:18:52.049Z,7.20
2018-09-24T01:21:20.409Z,7.20
2018-09-24T01:23:48.740Z,7.20
2018-09-24T01:26:17.089Z,7.20
2018-09-24T01:28:45.616Z,7.20
2018-09-24T01:31:13.973Z,7.10
2018-09-24T01:33:42.316Z,7.10
2018-09-24T01:36:11.167Z,7.00
2018-09-24T01:38:39.512Z,7.00
2018-09-24T01:41:07.948Z,7.00
2018-09-24T01:43:36.862Z,7.00
2018-09-24T01:46:05.229Z,7.10
2018-09-24T01:48:33.554Z,7.00
2018-09-24T01:51:02.303Z,7.00
2018-09-24T01:53:30.643Z,7.00
2018-09-24T01:55:59.004Z,6.90
2018-09-24T01:58:27.368Z,6.90
2018-09-24T02:00:55.692Z,7.00
2018-09-24T02:03:32.552Z,6.90
2018-09-24T02:06:00.988Z,6.90
2018-09-24T02:08:29.407Z,6.90
2018-09-24T02:10:57.796Z,6.90
2018-09-24T02:13:26.128Z,6.80
2018-09-24T02:15:54.476Z,6.90
2018-09-24T02:18:24.053Z,6.90
2018-09-24T02:20:52.403Z,6.80
2018-09-24T02:23:20.725Z,6.80
2018-09-24T02:25:49.681Z,6.80
2018-09-24T02:28:18.040Z,6.80
2018-09-24T02:30:46.375Z,6.80
2018-09-24T02:33:14.731Z,6.80
2018-09-24T02:35:47.880Z,6.80
2018-09-24T02:38:16.933Z,6.70
2018-09-24T02:40:45.259Z,6.70
2018-09-24T02:43:13.770Z,6.70
2018-09-24T02:45:42.220Z,6.70
2018-09-24T02:48:10.569Z,6.70
2018-09-24T02:50:39.732Z,6.70
2018-09-24T02:53:09.478Z,6.70
2018-09-24T02:55:37.815Z,6.60
2018-09-24T02:58:06.214Z,6.60
2018-09-24T03:00:34.625Z,6.60
2018-09-24T03:03:09.659Z,6.60
2018-09-24T03:05:38.622Z,6.60
2018-09-24T03:08:08.184Z,6.60
2018-09-24T03:10:36.824Z,6.60
2018-09-24T03:13:05.329Z,6.60
2018-09-24T03:15:35.367Z,6.50
2018-09-24T03:18:03.745Z,6.60
2018-09-24T03:20:38.506Z,6.70
2018-09-24T03:23:07.141Z,6.60
2018-09-24T03:25:36.390Z,6.60
2018-09-24T03:28:05.404Z,6.60
2018-09-24T03:30:39.708Z,6.60
2018-09-24T03:33:09.232Z,6.70
2018-09-24T03:35:37.571Z,6.70
2018-09-24T03:38:05.945Z,6.70
2018-09-24T03:40:34.671Z,6.70
2018-09-24T03:43:03.035Z,6.70
2018-09-24T03:45:31.476Z,6.70
2018-09-24T03:47:59.960Z,6.70
2018-09-24T03:50:28.364Z,6.70
2018-09-24T03:52:56.708Z,6.70
2018-09-24T03:55:25.076Z,6.70
2018-09-24T03:57:53.432Z,6.60
2018-09-24T04:00:21.768Z,6.60
2018-09-24T04:02:50.209Z,6.60
2018-09-24T04:05:23.956Z,6.60
2018-09-24T04:07:57.940Z,6.60
2018-09-24T04:10:31.592Z,6.60
2018-09-24T04:13:05.204Z,6.60
2018-09-24T04:15:38.808Z,6.60
2018-09-24T04:18:12.920Z,6.60
2018-09-24T04:20:46.463Z,6.60
2018-09-24T04:23:20.345Z,6.60
2018-09-24T04:25:53.818Z,6.60
2018-09-24T04:28:27.704Z,6.60
2018-09-24T04:31:01.228Z,6.60
2018-09-24T04:33:35.464Z,6.60
2018-09-24T04:36:09.112Z,6.70
2018-09-24T04:38:43.688Z,6.70
2018-09-24T04:41:17.378Z,6.60
2018-09-24T04:43:51.263Z,6.60
2018-09-24T04:46:26.840Z,6.60
2018-09-24T04:49:00.895Z,6.60
2018-09-24T04:51:34.496Z,6.60
2018-09-24T04:54:08.724Z,6.60
2018-09-24T04:56:42.427Z,6.60
2018-09-24T04:59:16.696Z,6.50
2018-09-24T05:01:50.481Z,6.50
2018-09-24T05:04:24.245Z,6.60
2018-09-24T05:06:57.853Z,6.70
2018-09-24T05:09:31.876Z,6.70
2018-09-24T05:12:05.614Z,6.70
2018-09-24T05:14:39.665Z,6.70
2018-09-24T05:17:16.976Z,6.60
2018-09-24T05:19:50.835Z,6.60
2018-09-24T05:22:24.587Z,6.60
2018-09-24T05:24:58.761Z,6.50
2018-09-24T05:27:32.345Z,6.60
2018-09-24T05:30:06.936Z,6.70
2018-09-24T05:32:40.504Z,6.70
2018-09-24T05:35:14.340Z,6.70
2018-09-24T05:37:47.911Z,6.90
2018-09-24T05:40:22.324Z,6.90
2018-09-24T05:42:55.928Z,7.00
2018-09-24T05:45:29.741Z,7.00
2018-09-24T05:48:06.563Z,7.00
2018-09-24T05:50:40.242Z,7.00
2018-09-24T05:53:13.879Z,7.10
2018-09-24T05:55:47.568Z,7.20
2018-09-24T05:58:21.184Z,7.30
2018-09-24T06:00:55.363Z,7.30
2018-09-24T06:03:29.550Z,7.40
2018-09-24T06:06:04.163Z,7.60
2018-09-24T06:08:37.702Z,7.70
2018-09-24T06:11:11.458Z,7.70
2018-09-24T06:13:45.083Z,7.80
2018-09-24T06:16:19.496Z,7.90
2018-09-24T06:18:53.261Z,7.90
2018-09-24T06:21:27.314Z,8.00
2018-09-24T06:24:00.932Z,7.90
2018-09-24T06:26:35.141Z,8.00
2018-09-24T06:29:08.975Z,8.10
2018-09-24T06:31:43.259Z,8.30
2018-09-24T06:34:17.043Z,8.50
2018-09-24T06:36:51.280Z,8.70
2018-09-24T06:39:25.024Z,8.80
2018-09-24T06:41:59.072Z,8.70
2018-09-24T06:44:32.692Z,8.70
2018-09-24T06:47:07.021Z,8.60
2018-09-24T06:49:44.037Z,8.50
2018-09-24T06:52:18.168Z,8.40
2018-09-24T06:54:51.964Z,8.40
2018-09-24T06:57:26.096Z,8.50
2018-09-24T06:59:59.817Z,8.70
2018-09-24T07:02:33.656Z,8.90
2018-09-24T15:38:07.235Z,14.90
2018-09-24T15:40:41.370Z,14.90
2018-09-24T15:43:15.091Z,15.10
2018-09-24T15:45:48.645Z,15.10
2018-09-24T15:48:22.358Z,15.00
2018-09-24T15:50:56.020Z,14.90
2018-09-24T15:53:30.060Z,14.80
2018-09-24T15:56:03.637Z,14.70
2018-09-24T15:58:37.687Z,14.60
2018-09-24T16:01:11.221Z,14.50
2018-09-24T16:03:44.892Z,14.60
2018-09-24T16:06:18.389Z,14.50
2018-09-24T16:08:51.978Z,14.50
2018-09-24T16:11:25.424Z,14.60
2018-09-24T16:13:59.229Z,14.60
2018-09-24T16:16:32.951Z,14.70
2018-09-24T16:19:06.604Z,14.70
2018-09-24T16:21:40.327Z,14.70
2018-09-24T16:24:14.084Z,14.70
2018-09-24T16:26:47.647Z,14.60
2018-09-24T16:29:21.932Z,14.40
2018-09-24T16:31:55.446Z,14.40
2018-09-24T16:34:29.040Z,14.30
2018-09-24T16:37:02.589Z,14.30
2018-09-24T16:39:36.665Z,14.20
2018-09-24T16:42:10.264Z,14.10
2018-09-24T16:44:44.253Z,14.00
2018-09-24T16:47:17.912Z,13.90
2018-09-24T16:49:51.940Z,13.80
2018-09-24T16:52:25.420Z,13.70
2018-09-24T16:54:59.510Z,13.60
2018-09-24T16:57:32.928Z,13.50
2018-09-24T17:00:08.019Z,13.50
2018-09-24T17:02:41.500Z,13.30
2018-09-24T17:05:15.272Z,13.30
2018-09-24T17:07:48.681Z,13.30
2018-09-24T17:10:22.273Z,13.20
2018-09-24T17:12:55.942Z,13.00
2018-09-24T17:15:29.656Z,13.00
2018-09-24T17:18:03.197Z,12.90
2018-09-24T17:20:37.244Z,12.80
2018-09-24T17:23:10.764Z,12.80
2018-09-24T17:25:44.641Z,12.70
2018-09-24T17:28:18.256Z,12.70
2018-09-24T17:30:51.968Z,12.60
2018-09-24T17:33:25.579Z,12.40
2018-09-24T17:35:59.664Z,12.30
2018-09-24T17:38:33.292Z,12.00
2018-09-24T17:41:07.840Z,12.00
2018-09-24T17:43:41.431Z,11.90
2018-09-24T17:46:15.239Z,12.00
2018-09-24T17:48:48.792Z,11.80
2018-09-24T17:51:22.353Z,11.70
2018-09-24T17:53:55.916Z,11.50
2018-09-24T17:56:30.013Z,11.40
2018-09-24T17:59:03.749Z,11.40
2018-09-24T18:01:37.828Z,11.30
2018-09-24T18:04:11.377Z,11.20
2018-09-24T18:06:44.961Z,11.00
2018-09-24T18:09:18.680Z,11.00
2018-09-24T18:11:52.564Z,10.90
2018-09-24T18:14:26.221Z,10.80
2018-09-24T18:17:01.275Z,10.70
2018-09-24T18:19:34.816Z,10.80
2018-09-24T18:22:08.348Z,10.80
2018-09-24T18:24:42.052Z,10.70
2018-09-24T18:27:15.952Z,11.00
2018-09-24T18:29:49.533Z,11.00
2018-09-24T18:32:23.687Z,11.10
2018-09-24T18:34:57.228Z,11.20
2018-09-24T18:37:31.022Z,11.20
2018-09-24T18:40:04.685Z,11.10
2018-09-24T18:42:38.796Z,11.10
2018-09-24T18:45:12.369Z,11.00
2018-09-24T18:47:46.483Z,10.90
2018-09-24T18:50:20.083Z,10.90
2018-09-24T18:52:54.161Z,10.90
2018-09-24T18:55:27.624Z,10.80
2018-09-24T18:58:01.333Z,10.70
2018-09-24T19:00:35.048Z,10.70
2018-09-24T19:03:09.140Z,10.70
2018-09-24T19:05:42.724Z,10.60
2018-09-24T19:08:16.289Z,10.50
2018-09-24T19:10:49.828Z,10.50
2018-09-24T19:13:23.320Z,10.40
2018-09-24T19:15:57.056Z,10.30
2018-09-24T19:18:30.620Z,10.30
2018-09-24T19:21:04.168Z,10.20
2018-09-24T19:23:38.244Z,10.20
2018-09-24T19:26:12.248Z,10.20
2018-09-24T19:28:45.828Z,10.00
2018-09-24T19:31:19.499Z,10.00
2018-09-24T19:33:53.640Z,9.90
2018-09-24T19:36:27.380Z,9.90
2018-09-24T19:39:01.328Z,9.80
2018-09-24T19:41:34.863Z,9.80
2018-09-24T19:44:08.746Z,9.80
2018-09-24T19:46:42.392Z,9.70
2018-09-24T19:49:16.297Z,9.70
2018-09-24T19:51:49.848Z,9.70
2018-09-24T19:54:23.396Z,9.70
2018-09-24T19:56:56.924Z,9.80
2018-09-24T19:59:31.188Z,9.70
2018-09-24T20:02:04.760Z,9.70
2018-09-24T20:04:38.524Z,9.70
2018-09-24T20:07:12.063Z,9.70
2018-09-24T20:09:45.672Z,9.70
2018-09-24T20:12:19.284Z,9.70
2018-09-24T20:14:52.889Z,9.70
2018-09-24T20:17:26.420Z,9.60
2018-09-24T20:20:00.342Z,9.50
2018-09-24T20:22:33.888Z,9.50
2018-09-24T20:25:07.560Z,9.50
2018-09-24T20:27:41.107Z,9.40
2018-09-24T20:30:15.446Z,9.40
2018-09-24T20:32:49.124Z,9.40
2018-09-24T20:35:23.200Z,9.50
2018-09-24T20:37:56.744Z,9.40
2018-09-24T20:40:30.964Z,9.40
2018-09-24T20:43:04.600Z,9.30
2018-09-24T20:45:40.193Z,9.30
2018-09-24T20:48:13.739Z,9.30
2018-09-24T20:50:47.340Z,9.30
2018-09-24T20:53:20.984Z,9.30
2018-09-24T20:55:54.680Z,9.30
2018-09-24T20:58:28.243Z,9.40
2018-09-24T21:01:02.264Z,9.50
2018-09-24T21:03:35.708Z,9.60
2018-09-24T21:06:09.844Z,9.60
2018-09-24T21:08:43.380Z,9.50
2018-09-24T21:11:17.429Z,9.50
2018-09-24T21:13:50.988Z,9.50
2018-09-24T21:16:25.094Z,9.60
2018-09-24T21:18:58.773Z,9.50
2018-09-24T21:21:32.892Z,9.50
2018-09-24T21:24:06.423Z,9.50
2018-09-24T21:26:40.428Z,9.50
2018-09-24T21:29:13.985Z,9.50
2018-09-24T21:31:47.839Z,9.40
2018-09-24T21:34:21.284Z,9.40
2018-09-24T21:36:54.944Z,9.30
2018-09-24T21:39:28.592Z,9.30
2018-09-24T21:42:02.371Z,9.20
2018-09-24T21:44:35.906Z,9.10
2018-09-24T21:47:11.684Z,9.10
2018-09-24T21:49:45.204Z,9.00
2018-09-24T21:52:19.023Z,9.00
2018-09-24T21:54:52.551Z,9.00
2018-09-24T21:57:26.269Z,9.10
2018-09-24T21:59:59.799Z,9.10
2018-09-24T22:02:33.385Z,9.00
2018-09-24T22:05:06.920Z,9.10
2018-09-24T22:07:40.883Z,9.10
2018-09-24T22:10:14.504Z,9.00
2018-09-24T22:12:48.120Z,9.00
2018-09-24T22:15:21.708Z,8.80
2018-09-24T22:17:55.909Z,8.80
2018-09-24T22:20:36.190Z,8.70
2018-09-24T22:23:10.013Z,8.70
2018-09-24T22:25:43.720Z,8.70
2018-09-24T22:28:17.904Z,8.70
2018-09-24T22:30:51.556Z,8.70
2018-09-24T22:33:25.416Z,8.70
2018-09-24T22:35:58.907Z,8.70
2018-09-24T22:38:33.228Z,8.60
2018-09-24T22:41:06.957Z,8.60
2018-09-24T22:43:40.800Z,8.60
2018-09-24T22:46:14.387Z,8.70
2018-09-24T22:48:48.548Z,8.60
2018-09-24T22:51:22.240Z,8.60
2018-09-24T22:53:55.928Z,8.60
2018-09-24T22:56:29.504Z,8.60
2018-09-24T22:59:03.212Z,8.60
2018-09-24T23:01:36.804Z,8.60
2018-09-24T23:04:10.852Z,8.60
2018-09-24T23:06:44.397Z,8.50
2018-09-24T23:09:17.881Z,8.50
2018-09-24T23:11:51.416Z,8.40
2018-09-24T23:14:25.285Z,8.30
2018-09-24T23:16:58.823Z,8.30
2018-09-24T23:19:32.498Z,8.30
2018-09-24T23:22:06.052Z,8.30
2018-09-24T23:24:39.665Z,8.20
2018-09-24T23:27:13.236Z,8.20
2018-09-24T23:29:47.304Z,8.10
2018-09-24T23:32:20.900Z,8.10
2018-09-24T23:34:54.844Z,8.10
2018-09-24T23:37:28.376Z,8.20
2018-09-24T23:40:02.447Z,8.20
2018-09-24T23:42:35.988Z,8.10
2018-09-24T23:45:09.712Z,8.10
2018-09-24T23:47:43.262Z,8.30
2018-09-24T23:50:17.388Z,8.30
2018-09-24T23:52:50.915Z,8.30
2018-09-24T23:55:24.557Z,8.30
2018-09-24T23:57:58.100Z,8.40
